sensor_id;sensor_type;location;lat;lon;timestamp;pressure;altitude;pressure_sealevel;temperature;humidity
70200;BME280;57587;55.688;37.600;2023-02-20T00:01:31;97407.72;;;-3.00;61.33
70200;BME280;57587;55.688;37.600;2023-02-20T00:03:58;97412.56;;;-3.05;60.96
70200;BME280;57587;55.688;37.600;2023-02-20T00:06:25;97408.97;;;-3.04;61.81
70200;BME280;57587;55.688;37.600;2023-02-20T00:08:52;97406.44;;;-2.96;61.70
70200;BME280;57587;55.688;37.600;2023-02-20T00:11:20;97410.69;;;-2.95;60.90
70200;BME280;57587;55.688;37.600;2023-02-20T00:13:48;97406.44;;;-2.96;61.21
70200;BME280;57587;55.688;37.600;2023-02-20T00:16:15;97407.72;;;-3.00;60.47
70200;BME280;57587;55.688;37.600;2023-02-20T00:18:43;97403.91;;;-3.06;61.02
70200;BME280;57587;55.688;37.600;2023-02-20T00:21:11;97408.63;;;-3.09;60.95
70200;BME280;57587;55.688;37.600;2023-02-20T00:23:38;97412.06;;;-3.09;61.50
70200;BME280;57587;55.688;37.600;2023-02-20T00:26:10;97411.75;;;-3.06;61.03
70200;BME280;57587;55.688;37.600;2023-02-20T00:28:41;97402.53;;;-3.10;61.58
70200;BME280;57587;55.688;37.600;2023-02-20T00:31:15;97415.47;;;-3.08;61.28
70200;BME280;57587;55.688;37.600;2023-02-20T00:33:44;97410.25;;;-3.08;61.07
70200;BME280;57587;55.688;37.600;2023-02-20T00:36:18;97407.63;;;-3.08;61.35
70200;BME280;57587;55.688;37.600;2023-02-20T00:38:46;97411.78;;;-2.97;61.37
70200;BME280;57587;55.688;37.600;2023-02-20T00:41:13;97412.03;;;-2.91;61.45
70200;BME280;57587;55.688;37.600;2023-02-20T00:43:41;97410.44;;;-2.84;60.80
70200;BME280;57587;55.688;37.600;2023-02-20T00:46:12;97400.66;;;-2.82;60.41
70200;BME280;57587;55.688;37.600;2023-02-20T00:48:41;97401.00;;;-2.76;60.00
70200;BME280;57587;55.688;37.600;2023-02-20T00:51:27;97398.56;;;-2.78;59.94
70200;BME280;57587;55.688;37.600;2023-02-20T00:53:54;97393.13;;;-2.85;59.31
70200;BME280;57587;55.688;37.600;2023-02-20T00:56:24;97398.78;;;-2.89;59.13
70200;BME280;57587;55.688;37.600;2023-02-20T00:58:51;97398.66;;;-2.88;59.51
70200;BME280;57587;55.688;37.600;2023-02-20T01:01:18;97396.94;;;-2.97;59.43
70200;BME280;57587;55.688;37.600;2023-02-20T01:03:46;97391.53;;;-2.95;59.48
70200;BME280;57587;55.688;37.600;2023-02-20T01:06:13;97391.72;;;-2.97;59.38
70200;BME280;57587;55.688;37.600;2023-02-20T01:08:42;97388.84;;;-3.04;59.58
70200;BME280;57587;55.688;37.600;2023-02-20T01:11:09;97389.41;;;-3.00;59.42
70200;BME280;57587;55.688;37.600;2023-02-20T01:13:37;97394.63;;;-3.00;59.80
70200;BME280;57587;55.688;37.600;2023-02-20T01:16:06;97396.78;;;-2.95;59.68
70200;BME280;57587;55.688;37.600;2023-02-20T01:18:33;97407.03;;;-3.02;59.68
70200;BME280;57587;55.688;37.600;2023-02-20T01:21:01;97394.03;;;-3.12;59.24
70200;BME280;57587;55.688;37.600;2023-02-20T01:23:29;97395.53;;;-3.09;59.78
70200;BME280;57587;55.688;37.600;2023-02-20T01:25:56;97398.88;;;-3.17;59.95
70200;BME280;57587;55.688;37.600;2023-02-20T01:28:23;97400.38;;;-3.14;59.50
70200;BME280;57587;55.688;37.600;2023-02-20T01:30:50;97405.25;;;-3.19;59.58
70200;BME280;57587;55.688;37.600;2023-02-20T01:33:17;97405.78;;;-3.16;60.09
70200;BME280;57587;55.688;37.600;2023-02-20T01:35:44;97404.81;;;-3.15;59.48
70200;BME280;57587;55.688;37.600;2023-02-20T01:38:11;97407.63;;;-3.08;59.92
70200;BME280;57587;55.688;37.600;2023-02-20T01:40:46;97402.47;;;-3.00;59.28
70200;BME280;57587;55.688;37.600;2023-02-20T01:43:15;97407.03;;;-3.02;59.02
70200;BME280;57587;55.688;37.600;2023-02-20T01:45:43;97408.44;;;-3.08;58.99
70200;BME280;57587;55.688;37.600;2023-02-20T01:48:29;97409.66;;;-3.20;59.15
70200;BME280;57587;55.688;37.600;2023-02-20T01:50:58;97409.88;;;-3.13;59.68
70200;BME280;57587;55.688;37.600;2023-02-20T01:53:27;97409.06;;;-3.14;59.26
70200;BME280;57587;55.688;37.600;2023-02-20T01:56:00;97405.78;;;-3.16;59.61
70200;BME280;57587;55.688;37.600;2023-02-20T01:58:32;97407.78;;;-3.10;59.43
70200;BME280;57587;55.688;37.600;2023-02-20T02:01:02;97405.09;;;-3.00;59.22
70200;BME280;57587;55.688;37.600;2023-02-20T02:03:34;97408.06;;;-2.95;58.83
70200;BME280;57587;55.688;37.600;2023-02-20T02:06:05;97412.34;;;-2.94;58.29
70200;BME280;57587;55.688;37.600;2023-02-20T02:08:36;97418.09;;;-3.08;58.47
70200;BME280;57587;55.688;37.600;2023-02-20T02:11:10;97416.38;;;-3.17;58.68
70200;BME280;57587;55.688;37.600;2023-02-20T02:13:38;97421.16;;;-3.13;58.96
70200;BME280;57587;55.688;37.600;2023-02-20T02:16:51;97418.91;;;-3.08;59.38
70200;BME280;57587;55.688;37.600;2023-02-20T02:22:43;97419.13;;;-3.01;58.89
70200;BME280;57587;55.688;37.600;2023-02-20T02:28:10;97430.88;;;-3.05;59.03
70200;BME280;57587;55.688;37.600;2023-02-20T02:42:26;97436.53;;;-3.10;58.63
70200;BME280;57587;55.688;37.600;2023-02-20T02:48:46;97444.25;;;-3.08;59.14
70200;BME280;57587;55.688;37.600;2023-02-20T02:51:25;97449.19;;;-3.05;58.60
70200;BME280;57587;55.688;37.600;2023-02-20T02:56:39;97443.97;;;-3.05;58.55
70200;BME280;57587;55.688;37.600;2023-02-20T02:59:09;97437.59;;;-3.03;58.24
70200;BME280;57587;55.688;37.600;2023-02-20T03:01:44;97442.97;;;-3.04;58.36
70200;BME280;57587;55.688;37.600;2023-02-20T03:04:13;97440.31;;;-3.12;57.88
70200;BME280;57587;55.688;37.600;2023-02-20T03:06:52;97432.47;;;-3.12;59.00
70200;BME280;57587;55.688;37.600;2023-02-20T03:09:30;97441.44;;;-2.97;58.38
70200;BME280;57587;55.688;37.600;2023-02-20T03:12:00;97438.72;;;-3.05;58.54
70200;BME280;57587;55.688;37.600;2023-02-20T03:14:35;97438.88;;;-3.07;57.82
70200;BME280;57587;55.688;37.600;2023-02-20T03:17:32;97444.56;;;-3.11;58.16
70200;BME280;57587;55.688;37.600;2023-02-20T03:20:05;97444.25;;;-3.08;58.23
70200;BME280;57587;55.688;37.600;2023-02-20T03:22:42;97452.72;;;-3.14;58.04
70200;BME280;57587;55.688;37.600;2023-02-20T03:25:35;97442.75;;;-3.29;58.83
70200;BME280;57587;55.688;37.600;2023-02-20T03:28:10;97451.47;;;-3.38;58.43
70200;BME280;57587;55.688;37.600;2023-02-20T03:30:46;97441.56;;;-3.52;58.37
70200;BME280;57587;55.688;37.600;2023-02-20T03:33:41;97440.47;;;-3.59;59.88
70200;BME280;57587;55.688;37.600;2023-02-20T03:36:34;97445.00;;;-3.79;59.48
70200;BME280;57587;55.688;37.600;2023-02-20T03:39:27;97439.94;;;-3.81;60.24
70200;BME280;57587;55.688;37.600;2023-02-20T03:42:16;97437.75;;;-3.85;59.88
70200;BME280;57587;55.688;37.600;2023-02-20T03:45:12;97440.41;;;-3.95;60.47
70200;BME280;57587;55.688;37.600;2023-02-20T03:47:44;97451.34;;;-3.82;60.72
70200;BME280;57587;55.688;37.600;2023-02-20T03:50:14;97448.00;;;-3.74;60.03
70200;BME280;57587;55.688;37.600;2023-02-20T03:52:42;97442.28;;;-3.87;59.87
70200;BME280;57587;55.688;37.600;2023-02-20T03:55:10;97449.31;;;-3.88;59.54
70200;BME280;57587;55.688;37.600;2023-02-20T03:57:42;97455.44;;;-3.79;60.25
70200;BME280;57587;55.688;37.600;2023-02-20T04:00:15;97449.94;;;-3.76;59.71
70200;BME280;57587;55.688;37.600;2023-02-20T04:02:52;97454.09;;;-3.83;59.81
70200;BME280;57587;55.688;37.600;2023-02-20T04:05:26;97450.50;;;-3.82;59.50
70200;BME280;57587;55.688;37.600;2023-02-20T04:08:04;97452.41;;;-3.75;59.77
70200;BME280;57587;55.688;37.600;2023-02-20T04:10:42;97450.75;;;-3.76;59.58
70200;BME280;57587;55.688;37.600;2023-02-20T04:13:12;97455.69;;;-3.73;59.75
70200;BME280;57587;55.688;37.600;2023-02-20T04:15:45;97457.88;;;-3.68;60.04
70200;BME280;57587;55.688;37.600;2023-02-20T04:18:18;97457.06;;;-3.68;59.22
70200;BME280;57587;55.688;37.600;2023-02-20T04:20:52;97459.56;;;-3.77;59.08
70200;BME280;57587;55.688;37.600;2023-02-20T04:23:31;97457.09;;;-3.78;59.13
70200;BME280;57587;55.688;37.600;2023-02-20T04:26:09;97458.22;;;-3.81;59.14
70200;BME280;57587;55.688;37.600;2023-02-20T04:28:41;97458.50;;;-3.84;59.85
70200;BME280;57587;55.688;37.600;2023-02-20T04:31:11;97469.28;;;-3.97;59.53
70200;BME280;57587;55.688;37.600;2023-02-20T04:33:39;97468.75;;;-4.00;59.97
70200;BME280;57587;55.688;37.600;2023-02-20T04:36:12;97463.53;;;-4.00;60.02
70200;BME280;57587;55.688;37.600;2023-02-20T04:38:40;97462.66;;;-3.91;59.79
70200;BME280;57587;55.688;37.600;2023-02-20T04:41:11;97459.91;;;-3.89;59.36
70200;BME280;57587;55.688;37.600;2023-02-20T04:43:39;97457.94;;;-3.78;59.49
70200;BME280;57587;55.688;37.600;2023-02-20T04:46:06;97457.66;;;-3.84;59.15
70200;BME280;57587;55.688;37.600;2023-02-20T04:48:34;97462.38;;;-3.88;59.47
70200;BME280;57587;55.688;37.600;2023-02-20T04:51:02;97467.00;;;-3.82;59.19
70200;BME280;57587;55.688;37.600;2023-02-20T04:53:31;97458.59;;;-3.76;59.04
70200;BME280;57587;55.688;37.600;2023-02-20T04:55:59;97464.03;;;-3.87;58.39
70200;BME280;57587;55.688;37.600;2023-02-20T04:58:26;97471.72;;;-3.85;58.51
70200;BME280;57587;55.688;37.600;2023-02-20T05:01:00;97470.13;;;-3.68;58.81
70200;BME280;57587;55.688;37.600;2023-02-20T05:03:28;97478.78;;;-3.96;57.94
70200;BME280;57587;55.688;37.600;2023-02-20T05:05:55;97466.25;;;-3.92;58.64
70200;BME280;57587;55.688;37.600;2023-02-20T05:08:22;97475.84;;;-3.83;58.50
70200;BME280;57587;55.688;37.600;2023-02-20T05:10:49;97486.91;;;-3.99;58.55
70200;BME280;57587;55.688;37.600;2023-02-20T05:13:16;97483.34;;;-4.07;59.62
70200;BME280;57587;55.688;37.600;2023-02-20T05:15:43;97481.16;;;-4.02;59.02
70200;BME280;57587;55.688;37.600;2023-02-20T05:18:10;97475.72;;;-3.91;58.93
70200;BME280;57587;55.688;37.600;2023-02-20T05:20:37;97479.72;;;-3.87;58.73
70200;BME280;57587;55.688;37.600;2023-02-20T05:23:23;97485.22;;;-3.90;58.52
70200;BME280;57587;55.688;37.600;2023-02-20T05:25:50;97486.22;;;-3.73;59.09
70200;BME280;57587;55.688;37.600;2023-02-20T05:28:19;97480.66;;;-3.60;58.44
70200;BME280;57587;55.688;37.600;2023-02-20T05:30:46;97486.72;;;-3.60;57.79
70200;BME280;57587;55.688;37.600;2023-02-20T05:33:13;97476.84;;;-3.66;57.90
70200;BME280;57587;55.688;37.600;2023-02-20T05:35:40;97486.00;;;-3.52;57.90
70200;BME280;57587;55.688;37.600;2023-02-20T05:38:07;97490.47;;;-3.44;57.90
70200;BME280;57587;55.688;37.600;2023-02-20T05:40:35;97495.06;;;-3.29;57.43
70200;BME280;57587;55.688;37.600;2023-02-20T05:43:02;97482.88;;;-3.20;57.93
70200;BME280;57587;55.688;37.600;2023-02-20T05:45:28;97476.53;;;-3.17;56.66
70200;BME280;57587;55.688;37.600;2023-02-20T05:47:55;97486.72;;;-3.14;57.61
70200;BME280;57587;55.688;37.600;2023-02-20T05:50:23;97492.16;;;-3.08;56.82
70200;BME280;57587;55.688;37.600;2023-02-20T05:52:50;97483.19;;;-3.05;57.07
70200;BME280;57587;55.688;37.600;2023-02-20T05:55:17;97485.81;;;-3.05;56.25
70200;BME280;57587;55.688;37.600;2023-02-20T05:57:44;97500.28;;;-3.29;56.41
70200;BME280;57587;55.688;37.600;2023-02-20T06:00:11;97498.22;;;-3.25;56.55
70200;BME280;57587;55.688;37.600;2023-02-20T06:02:39;97498.16;;;-3.15;56.02
70200;BME280;57587;55.688;37.600;2023-02-20T06:05:06;97498.00;;;-3.14;55.88
70200;BME280;57587;55.688;37.600;2023-02-20T06:07:34;97499.09;;;-3.16;57.14
70200;BME280;57587;55.688;37.600;2023-02-20T06:10:02;97503.69;;;-3.18;56.48
70200;BME280;57587;55.688;37.600;2023-02-20T06:12:30;97506.09;;;-3.35;56.53
70200;BME280;57587;55.688;37.600;2023-02-20T06:14:57;97508.53;;;-3.23;56.64
70200;BME280;57587;55.688;37.600;2023-02-20T06:17:24;97504.16;;;-3.33;56.62
70200;BME280;57587;55.688;37.600;2023-02-20T06:19:51;97505.50;;;-3.29;56.97
70200;BME280;57587;55.688;37.600;2023-02-20T06:22:18;97507.53;;;-3.22;56.91
70200;BME280;57587;55.688;37.600;2023-02-20T06:24:46;97517.13;;;-3.13;56.58
70200;BME280;57587;55.688;37.600;2023-02-20T06:27:15;97507.72;;;-3.06;56.61
70200;BME280;57587;55.688;37.600;2023-02-20T06:29:45;97516.63;;;-2.99;55.88
70200;BME280;57587;55.688;37.600;2023-02-20T06:32:13;97511.69;;;-3.02;55.98
70200;BME280;57587;55.688;37.600;2023-02-20T06:34:40;97522.53;;;-2.97;55.56
70200;BME280;57587;55.688;37.600;2023-02-20T06:37:07;97520.75;;;-2.96;55.33
70200;BME280;57587;55.688;37.600;2023-02-20T06:39:34;97518.47;;;-2.91;55.53
70200;BME280;57587;55.688;37.600;2023-02-20T06:42:01;97522.00;;;-2.83;55.20
70200;BME280;57587;55.688;37.600;2023-02-20T06:44:28;97512.66;;;-2.85;55.05
70200;BME280;57587;55.688;37.600;2023-02-20T06:46:56;97520.38;;;-2.84;55.05
70200;BME280;57587;55.688;37.600;2023-02-20T06:49:23;97523.66;;;-2.82;55.31
70200;BME280;57587;55.688;37.600;2023-02-20T06:51:53;97524.31;;;-2.80;55.10
70200;BME280;57587;55.688;37.600;2023-02-20T06:54:21;97519.31;;;-2.91;55.28
70200;BME280;57587;55.688;37.600;2023-02-20T06:56:48;97520.06;;;-2.81;54.93
70200;BME280;57587;55.688;37.600;2023-02-20T06:59:15;97522.09;;;-2.74;55.21
70200;BME280;57587;55.688;37.600;2023-02-20T07:01:43;97518.69;;;-2.67;54.49
70200;BME280;57587;55.688;37.600;2023-02-20T07:04:16;97525.50;;;-2.56;55.09
70200;BME280;57587;55.688;37.600;2023-02-20T07:06:43;97525.66;;;-2.58;53.95
70200;BME280;57587;55.688;37.600;2023-02-20T07:09:10;97531.41;;;-2.54;53.99
70200;BME280;57587;55.688;37.600;2023-02-20T07:11:38;97526.16;;;-2.54;54.43
70200;BME280;57587;55.688;37.600;2023-02-20T07:14:16;97525.94;;;-2.43;54.07
70200;BME280;57587;55.688;37.600;2023-02-20T07:16:43;97527.88;;;-2.45;54.44
70200;BME280;57587;55.688;37.600;2023-02-20T07:19:10;97524.97;;;-2.42;53.59
70200;BME280;57587;55.688;37.600;2023-02-20T07:21:38;97530.66;;;-2.46;53.75
70200;BME280;57587;55.688;37.600;2023-02-20T07:24:05;97530.66;;;-2.46;54.59
70200;BME280;57587;55.688;37.600;2023-02-20T07:26:32;97528.94;;;-2.56;54.43
70200;BME280;57587;55.688;37.600;2023-02-20T07:29:00;97538.00;;;-2.50;54.19
70200;BME280;57587;55.688;37.600;2023-02-20T07:31:28;97541.22;;;-2.38;53.50
70200;BME280;57587;55.688;37.600;2023-02-20T07:33:56;97536.78;;;-2.38;53.69
70200;BME280;57587;55.688;37.600;2023-02-20T07:36:23;97541.72;;;-2.35;53.30
70200;BME280;57587;55.688;37.600;2023-02-20T07:39:01;97536.63;;;-2.36;52.98
70200;BME280;57587;55.688;37.600;2023-02-20T07:41:29;97537.81;;;-2.30;54.01
70200;BME280;57587;55.688;37.600;2023-02-20T07:44:03;97541.09;;;-2.11;53.24
70200;BME280;57587;55.688;37.600;2023-02-20T07:46:31;97542.22;;;-2.13;52.38
70200;BME280;57587;55.688;37.600;2023-02-20T07:49:03;97538.34;;;-2.27;52.40
70200;BME280;57587;55.688;37.600;2023-02-20T07:51:31;97547.28;;;-2.12;52.57
70200;BME280;57587;55.688;37.600;2023-02-20T07:53:58;97547.25;;;-1.94;53.22
70200;BME280;57587;55.688;37.600;2023-02-20T07:56:25;97546.16;;;-1.83;52.08
70200;BME280;57587;55.688;37.600;2023-02-20T07:58:53;97554.19;;;-1.84;51.87
70200;BME280;57587;55.688;37.600;2023-02-20T08:01:20;97558.09;;;-1.89;52.14
70200;BME280;57587;55.688;37.600;2023-02-20T08:03:47;97560.56;;;-1.87;51.45
70200;BME280;57587;55.688;37.600;2023-02-20T08:06:18;97559.63;;;-1.78;52.50
70200;BME280;57587;55.688;37.600;2023-02-20T08:08:49;97552.31;;;-1.66;52.23
70200;BME280;57587;55.688;37.600;2023-02-20T08:11:17;97559.41;;;-1.84;52.15
70200;BME280;57587;55.688;37.600;2023-02-20T08:13:45;97560.44;;;-1.77;52.86
70200;BME280;57587;55.688;37.600;2023-02-20T08:16:12;97561.78;;;-1.73;51.08
70200;BME280;57587;55.688;37.600;2023-02-20T08:18:40;97560.03;;;-1.91;51.98
70200;BME280;57587;55.688;37.600;2023-02-20T08:21:07;97566.66;;;-1.78;51.88
70200;BME280;57587;55.688;37.600;2023-02-20T08:23:34;97559.50;;;-1.68;51.86
70200;BME280;57587;55.688;37.600;2023-02-20T08:26:03;97566.31;;;-1.57;52.01
70200;BME280;57587;55.688;37.600;2023-02-20T08:28:31;97569.75;;;-1.57;51.33
70200;BME280;57587;55.688;37.600;2023-02-20T08:30:58;97566.75;;;-1.62;51.35
70200;BME280;57587;55.688;37.600;2023-02-20T08:33:25;97560.88;;;-1.64;51.93
70200;BME280;57587;55.688;37.600;2023-02-20T08:35:52;97566.00;;;-1.54;51.93
70200;BME280;57587;55.688;37.600;2023-02-20T08:38:24;97567.81;;;-1.47;51.36
70200;BME280;57587;55.688;37.600;2023-02-20T08:40:51;97575.56;;;-1.37;51.09
70200;BME280;57587;55.688;37.600;2023-02-20T08:43:19;97577.09;;;-1.26;51.52
70200;BME280;57587;55.688;37.600;2023-02-20T08:45:46;97577.75;;;-1.24;50.69
70200;BME280;57587;55.688;37.600;2023-02-20T08:48:13;97584.03;;;-1.17;49.93
70200;BME280;57587;55.688;37.600;2023-02-20T08:50:41;97575.69;;;-1.04;50.53
70200;BME280;57587;55.688;37.600;2023-02-20T08:53:08;97578.88;;;-0.76;49.76
70200;BME280;57587;55.688;37.600;2023-02-20T08:55:35;97584.50;;;-0.71;50.03
70200;BME280;57587;55.688;37.600;2023-02-20T08:58:02;97574.66;;;-0.61;49.73
70200;BME280;57587;55.688;37.600;2023-02-20T09:00:29;97569.06;;;-0.50;49.94
70200;BME280;57587;55.688;37.600;2023-02-20T09:02:56;97572.88;;;-0.36;50.07
70200;BME280;57587;55.688;37.600;2023-02-20T09:05:23;97573.34;;;-0.32;49.27
70200;BME280;57587;55.688;37.600;2023-02-20T09:07:51;97563.50;;;-0.22;48.47
70200;BME280;57587;55.688;37.600;2023-02-20T09:10:19;97562.03;;;-0.08;47.97
70200;BME280;57587;55.688;37.600;2023-02-20T09:12:47;97568.59;;;-0.12;48.37
70200;BME280;57587;55.688;37.600;2023-02-20T09:15:14;97558.25;;;-0.06;48.58
70200;BME280;57587;55.688;37.600;2023-02-20T09:17:47;97568.41;;;0.14;46.71
70200;BME280;57587;55.688;37.600;2023-02-20T09:20:16;97561.81;;;0.26;46.71
70200;BME280;57587;55.688;37.600;2023-02-20T09:22:43;97561.13;;;0.32;47.07
70200;BME280;57587;55.688;37.600;2023-02-20T09:25:11;97575.00;;;0.10;46.68
70200;BME280;57587;55.688;37.600;2023-02-20T09:27:38;97570.38;;;0.12;46.90
70200;BME280;57587;55.688;37.600;2023-02-20T09:30:06;97582.38;;;0.22;47.25
70200;BME280;57587;55.688;37.600;2023-02-20T09:32:34;97574.63;;;0.29;46.98
70200;BME280;57587;55.688;37.600;2023-02-20T09:35:01;97577.88;;;0.39;46.21
70200;BME280;57587;55.688;37.600;2023-02-20T09:37:29;97566.41;;;0.32;46.33
70200;BME280;57587;55.688;37.600;2023-02-20T09:39:59;97578.56;;;0.33;46.42
70200;BME280;57587;55.688;37.600;2023-02-20T09:45:18;97581.88;;;0.19;46.33
70200;BME280;57587;55.688;37.600;2023-02-20T09:53:26;97564.47;;;0.02;47.40
70200;BME280;57587;55.688;37.600;2023-02-20T09:55:57;97564.13;;;-0.04;47.18
70200;BME280;57587;55.688;37.600;2023-02-20T09:58:33;97571.06;;;-0.11;47.51
70200;BME280;57587;55.688;37.600;2023-02-20T10:01:05;97563.34;;;-0.12;47.18
70200;BME280;57587;55.688;37.600;2023-02-20T10:03:43;97571.22;;;-0.20;47.74
70200;BME280;57587;55.688;37.600;2023-02-20T10:06:17;97575.81;;;-0.22;48.21
70200;BME280;57587;55.688;37.600;2023-02-20T10:08:48;97571.22;;;-0.20;47.94
70200;BME280;57587;55.688;37.600;2023-02-20T10:24:38;97563.34;;;-0.20;47.24
70200;BME280;57587;55.688;37.600;2023-02-20T10:30:04;97562.84;;;-0.32;47.86
70200;BME280;57587;55.688;37.600;2023-02-20T10:35:14;97558.56;;;-0.25;48.23
70200;BME280;57587;55.688;37.600;2023-02-20T10:37:47;97561.88;;;-0.15;48.10
70200;BME280;57587;55.688;37.600;2023-02-20T10:45:51;97564.66;;;-0.16;47.60
70200;BME280;57587;55.688;37.600;2023-02-20T10:48:22;97559.06;;;-0.13;47.42
70200;BME280;57587;55.688;37.600;2023-02-20T10:51:15;97560.56;;;-0.27;47.04
70200;BME280;57587;55.688;37.600;2023-02-20T10:56:31;97558.25;;;-0.30;47.15
70200;BME280;57587;55.688;37.600;2023-02-20T11:01:30;97561.53;;;-0.36;47.30
70200;BME280;57587;55.688;37.600;2023-02-20T11:06:35;97563.16;;;-0.35;47.93
70200;BME280;57587;55.688;37.600;2023-02-20T11:09:03;97557.56;;;-0.40;48.27
70200;BME280;57587;55.688;37.600;2023-02-20T11:11:39;97553.66;;;-0.36;48.48
70200;BME280;57587;55.688;37.600;2023-02-20T11:14:15;97565.97;;;-0.37;47.42
70200;BME280;57587;55.688;37.600;2023-02-20T11:16:56;97559.53;;;-0.34;47.94
70200;BME280;57587;55.688;37.600;2023-02-20T11:19:54;97557.25;;;-0.37;47.42
70200;BME280;57587;55.688;37.600;2023-02-20T11:25:27;97560.84;;;-0.47;47.91
70200;BME280;57587;55.688;37.600;2023-02-20T11:27:57;97551.81;;;-0.44;48.68
70200;BME280;57587;55.688;37.600;2023-02-20T11:35:36;97556.44;;;-0.46;49.13
70200;BME280;57587;55.688;37.600;2023-02-20T11:43:33;97576.28;;;-0.60;48.65
70200;BME280;57587;55.688;37.600;2023-02-20T11:46:13;97581.03;;;-0.63;48.81
70200;BME280;57587;55.688;37.600;2023-02-20T11:54:22;97585.09;;;-0.85;48.65
70200;BME280;57587;55.688;37.600;2023-02-20T11:56:54;97584.94;;;-0.84;48.64
70200;BME280;57587;55.688;37.600;2023-02-20T11:59:36;97590.50;;;-0.87;48.64
70200;BME280;57587;55.688;37.600;2023-02-20T12:05:05;97584.75;;;-0.90;48.94
70200;BME280;57587;55.688;37.600;2023-02-20T12:12:49;97592.44;;;-0.97;48.51
70200;BME280;57587;55.688;37.600;2023-02-20T12:15:19;97579.31;;;-0.97;48.06
70200;BME280;57587;55.688;37.600;2023-02-20T12:20:33;97581.81;;;-0.96;48.43
70200;BME280;57587;55.688;37.600;2023-02-20T12:23:22;97585.06;;;-0.94;48.27
70200;BME280;57587;55.688;37.600;2023-02-20T12:34:29;97599.22;;;-0.86;48.49
70200;BME280;57587;55.688;37.600;2023-02-20T12:40:32;97590.63;;;-0.97;48.61
70200;BME280;57587;55.688;37.600;2023-02-20T12:48:27;97598.19;;;-1.02;47.49
70200;BME280;57587;55.688;37.600;2023-02-20T12:53:50;97595.69;;;-1.03;47.71
70200;BME280;57587;55.688;37.600;2023-02-20T13:00:21;97596.84;;;-1.06;47.52
70200;BME280;57587;55.688;37.600;2023-02-20T13:02:55;97589.94;;;-1.07;48.48
70200;BME280;57587;55.688;37.600;2023-02-20T13:05:25;97591.25;;;-1.11;48.03
70200;BME280;57587;55.688;37.600;2023-02-20T13:07:56;97588.31;;;-1.08;48.22
70200;BME280;57587;55.688;37.600;2023-02-20T13:10:29;97587.97;;;-1.13;48.76
70200;BME280;57587;55.688;37.600;2023-02-20T13:12:57;97585.34;;;-1.13;48.21
70200;BME280;57587;55.688;37.600;2023-02-20T13:15:39;97586.31;;;-1.14;48.38
70200;BME280;57587;55.688;37.600;2023-02-20T13:20:46;97582.34;;;-1.18;48.10
70200;BME280;57587;55.688;37.600;2023-02-20T13:30:39;97591.34;;;-1.29;49.46
70200;BME280;57587;55.688;37.600;2023-02-20T13:33:21;97596.09;;;-1.32;49.44
70200;BME280;57587;55.688;37.600;2023-02-20T13:35:50;97592.13;;;-1.36;48.89
70200;BME280;57587;55.688;37.600;2023-02-20T13:38:20;97591.47;;;-1.38;49.25
70200;BME280;57587;55.688;37.600;2023-02-20T13:46:07;97581.22;;;-1.58;49.56
70200;BME280;57587;55.688;37.600;2023-02-20T13:54:19;97588.41;;;-1.60;48.59
70200;BME280;57587;55.688;37.600;2023-02-20T13:56:59;97591.03;;;-1.60;49.15
70200;BME280;57587;55.688;37.600;2023-02-20T13:59:30;97589.34;;;-1.69;49.34
70200;BME280;57587;55.688;37.600;2023-02-20T14:02:18;97593.75;;;-1.70;49.95
70200;BME280;57587;55.688;37.600;2023-02-20T14:04:54;97599.63;;;-1.76;49.72
70200;BME280;57587;55.688;37.600;2023-02-20T14:07:36;97606.00;;;-1.78;49.96
70200;BME280;57587;55.688;37.600;2023-02-20T14:10:12;97594.69;;;-1.79;50.16
70200;BME280;57587;55.688;37.600;2023-02-20T14:12:40;97593.50;;;-1.84;50.27
70200;BME280;57587;55.688;37.600;2023-02-20T14:15:07;97598.13;;;-1.78;49.35
70200;BME280;57587;55.688;37.600;2023-02-20T14:17:35;97601.00;;;-1.90;49.40
70200;BME280;57587;55.688;37.600;2023-02-20T14:20:10;97600.03;;;-1.89;49.15
70200;BME280;57587;55.688;37.600;2023-02-20T14:22:41;97592.63;;;-1.93;49.30
70200;BME280;57587;55.688;37.600;2023-02-20T14:27:35;97600.97;;;-1.98;49.75
70200;BME280;57587;55.688;37.600;2023-02-20T14:30:05;97606.50;;;-2.01;49.82
70200;BME280;57587;55.688;37.600;2023-02-20T14:32:33;97601.91;;;-1.99;49.41
70200;BME280;57587;55.688;37.600;2023-02-20T14:40:54;97599.97;;;-1.97;48.59
70200;BME280;57587;55.688;37.600;2023-02-20T14:43:23;97604.91;;;-1.94;48.79
70200;BME280;57587;55.688;37.600;2023-02-20T14:46:06;97595.72;;;-1.98;48.88
70200;BME280;57587;55.688;37.600;2023-02-20T14:48:35;97612.56;;;-2.00;49.87
70200;BME280;57587;55.688;37.600;2023-02-20T14:51:24;97605.13;;;-2.05;49.51
70200;BME280;57587;55.688;37.600;2023-02-20T14:54:24;97606.06;;;-2.14;49.16
70200;BME280;57587;55.688;37.600;2023-02-20T14:56:50;97612.28;;;-2.15;49.57
70200;BME280;57587;55.688;37.600;2023-02-20T14:59:38;97609.03;;;-2.09;48.90
70200;BME280;57587;55.688;37.600;2023-02-20T15:02:13;97616.84;;;-2.17;49.81
70200;BME280;57587;55.688;37.600;2023-02-20T15:05:03;97617.81;;;-2.18;50.78
70200;BME280;57587;55.688;37.600;2023-02-20T15:07:31;97612.13;;;-2.14;49.47
70200;BME280;57587;55.688;37.600;2023-02-20T15:10:04;97615.41;;;-2.12;50.31
70200;BME280;57587;55.688;37.600;2023-02-20T15:12:35;97605.75;;;-2.11;49.76
70200;BME280;57587;55.688;37.600;2023-02-20T15:15:06;97615.72;;;-2.15;50.30
70200;BME280;57587;55.688;37.600;2023-02-20T15:17:36;97617.13;;;-2.20;50.74
70200;BME280;57587;55.688;37.600;2023-02-20T15:20:35;97620.44;;;-2.18;50.94
70200;BME280;57587;55.688;37.600;2023-02-20T15:25:47;97609.97;;;-2.18;51.56
70200;BME280;57587;55.688;37.600;2023-02-20T15:33:39;97607.50;;;-2.20;50.91
70200;BME280;57587;55.688;37.600;2023-02-20T15:36:10;97607.88;;;-2.33;50.64
70200;BME280;57587;55.688;37.600;2023-02-20T15:38:39;97607.25;;;-2.26;51.78
70200;BME280;57587;55.688;37.600;2023-02-20T15:41:06;97617.81;;;-2.18;51.67
70200;BME280;57587;55.688;37.600;2023-02-20T15:43:34;97614.91;;;-2.15;52.45
70200;BME280;57587;55.688;37.600;2023-02-20T15:46:13;97608.38;;;-2.11;52.49
70200;BME280;57587;55.688;37.600;2023-02-20T15:48:42;97602.25;;;-2.20;52.99